Vano — SBNM — position and weather

sailwx.info

Track history (hours):
 
Tides and Currents Weather Stations Pressure Air Temp Water Temp Dewpoint Dewpoint Depression Visibility Wind Speed Wind Dir Waves Ship Positions

Vano

Last reported at 2015-May-24 14:24 UTC. Time now 2015-May-24 15:24 UTC.
Position N 59°23' E 018°18'.

Length 38 m; draft 1.8 m.

Type: Passenger vessel. MMSI: 265520400.

Date/timePositionNaut miles runAvg speedWind from/ knotsBaromVisibWave heightAir tempDewpointWater temp
2015-May-24 14:24N 59°23' E 018°18'7 8.8
2015-May-24 13:33N 59°20' E 018°05'1 0.1
2015-May-23 14:11N 59°19' E 018°07'1 2.3
2015-May-23 13:33N 59°20' E 018°05'1 0.7
2015-May-23 12:33N 59°19' E 018°05'3 0.4
2015-May-23 06:21N 59°19' E 018°10'3 3.8
2015-May-23 05:34N 59°20' E 018°05'0 0.0
2015-May-23 04:33N 59°20' E 018°05'0 0.0
2015-May-23 03:33N 59°20' E 018°05'0 0.0
2015-May-23 02:33N 59°20' E 018°05'0 0.0
2015-May-23 01:33N 59°20' E 018°05'0 0.0
2015-May-23 00:33N 59°20' E 018°05'0 0.0
2015-May-22 23:33N 59°20' E 018°05'0 0.0
2015-May-22 22:33N 59°20' E 018°05'1 0.2
2015-May-22 16:26N 59°19' E 018°07'1 1.7
2015-May-22 15:33N 59°20' E 018°05'3 0.4
2015-May-22 07:09N 59°20' E 018°11'3 5.6
2015-May-22 06:33N 59°20' E 018°05'0 0.0
2015-May-22 05:33N 59°20' E 018°05'0 0.0
2015-May-22 04:33N 59°20' E 018°05'0 0.0
2015-May-22 03:33N 59°20' E 018°05'0 0.0
2015-May-22 02:33N 59°20' E 018°05'0 0.0
2015-May-22 01:33N 59°20' E 018°05'0 0.0
2015-May-22 00:33N 59°20' E 018°05'0 0.0
2015-May-21 23:33N 59°20' E 018°05'0 0.0
2015-May-21 21:33N 59°20' E 018°05'0 0.0
2015-May-21 20:33N 59°20' E 018°05'0 0.0
2015-May-21 19:33N 59°20' E 018°05'0 0.0
2015-May-21 18:33N 59°20' E 018°05'0 0.0
2015-May-21 17:33N 59°20' E 018°05'0 0.0
2015-May-21 16:33N 59°20' E 018°05'0 0.0
2015-May-21 15:33N 59°20' E 018°05'0 0.0
2015-May-21 14:33N 59°20' E 018°05'7 5.6
2015-May-21 13:13N 59°23' E 018°18'7 1.1
2015-May-21 07:09N 59°19' E 018°07'1 2.3
2015-May-21 06:33N 59°20' E 018°05'0 0.0
2015-May-20 15:32N 59°19' E 018°05'0 0.3
2015-May-20 14:31N 59°20' E 018°05'7 6.0
2015-May-20 13:18N 59°23' E 018°18'7 1.1
2015-May-20 07:11N 59°19' E 018°07'1 2.3
2015-May-20 06:33N 59°20' E 018°05'0 0.0
2015-May-19 15:32N 59°19' E 018°05'0 0.3
2015-May-19 14:33N 59°20' E 018°05'0 0.0
2015-May-19 13:33N 59°20' E 018°05'0 0.0
2015-May-19 12:33N 59°20' E 018°05'0 0.0
2015-May-19 11:33N 59°20' E 018°05'0 0.0
2015-May-19 10:33N 59°20' E 018°05'0 0.0
2015-May-19 09:32N 59°20' E 018°05'0 0.0
2015-May-19 08:33N 59°20' E 018°05'0 0.0
2015-May-19 07:33N 59°20' E 018°05'0 0.0
2015-May-19 06:33N 59°20' E 018°05'0 0.0
2015-May-19 05:34N 59°20' E 018°05'0 0.0
2015-May-19 04:33N 59°20' E 018°05'0 0.0
2015-May-19 03:33N 59°20' E 018°05'0 0.0
2015-May-19 02:33N 59°20' E 018°05'0 0.0
2015-May-19 01:33N 59°20' E 018°05'0 0.0
2015-May-19 00:33N 59°20' E 018°05'0 0.0
2015-May-18 23:33N 59°20' E 018°05'0 0.0
2015-May-18 22:33N 59°20' E 018°05'0 0.0
2015-May-18 21:33N 59°20' E 018°05'0 0.0
2015-May-18 20:33N 59°20' E 018°05'0 0.0
2015-May-18 19:33N 59°20' E 018°05'0 0.0
2015-May-18 18:33N 59°20' E 018°05'0 0.0
2015-May-18 17:33N 59°20' E 018°05'0 0.0
2015-May-18 16:33N 59°20' E 018°05'0 0.0
2015-May-18 15:33N 59°20' E 018°05'0 0.0
2015-May-18 14:33N 59°20' E 018°05'0 0.0
2015-May-18 13:33N 59°20' E 018°05'0 0.0
2015-May-18 12:33N 59°20' E 018°05'0 0.0
2015-May-18 11:33N 59°20' E 018°05'0 0.0
2015-May-18 10:33N 59°20' E 018°05'0 0.0
2015-May-18 09:33N 59°20' E 018°05'0 0.0
2015-May-18 08:33N 59°20' E 018°05'0 0.0
2015-May-18 07:33N 59°20' E 018°05'0 0.0
2015-May-18 06:33N 59°20' E 018°05'0 0.0
2015-May-18 05:33N 59°20' E 018°05'0 0.0
2015-May-18 04:33N 59°20' E 018°05'0 0.0
2015-May-18 03:32N 59°20' E 018°05'0 0.0
2015-May-18 02:32N 59°20' E 018°05'0 0.0
2015-May-18 01:33N 59°20' E 018°05'0 0.0
2015-May-18 00:33N 59°20' E 018°05'0 0.0
2015-May-17 23:33N 59°20' E 018°05'0 0.0
2015-May-17 22:33N 59°20' E 018°05'0 0.0
2015-May-17 21:33N 59°20' E 018°05'0 0.0
2015-May-17 20:33N 59°20' E 018°05'0 0.0
2015-May-17 19:33N 59°20' E 018°05'1 1.2
2015-May-17 18:33N 59°19' E 018°06'7 1.6
2015-May-17 14:21N 59°23' E 018°18'7 8.7
2015-May-17 13:31N 59°20' E 018°05'8 7.8
2015-May-17 12:33N 59°23' E 018°18'7 0.3
2015-May-16 14:11N 59°19' E 018°07'1 2.2
2015-May-16 13:33N 59°20' E 018°04'0 0.4
2015-May-16 12:31N 59°19' E 018°05'1 0.2
2015-May-16 06:10N 59°19' E 018°07'1 2.3
2015-May-16 05:33N 59°20' E 018°04'0 0.0
2015-May-16 04:33N 59°20' E 018°04'0 0.0
2015-May-16 03:33N 59°20' E 018°04'0 0.0
2015-May-16 02:33N 59°20' E 018°04'0 0.0
2015-May-16 01:33N 59°20' E 018°04'0 0.0
2015-May-16 00:33N 59°20' E 018°04'0 0.0
2015-May-15 23:33N 59°20' E 018°04'0 0.0
2015-May-15 22:33N 59°20' E 018°04'7 5.6
2015-May-15 21:15N 59°23' E 018°18'7 1.4
2015-May-15 16:25N 59°19' E 018°07'1 1.4
2015-May-15 15:33N 59°20' E 018°05'3 0.4
2015-May-15 07:04N 59°20' E 018°11'3 5.9
2015-May-15 06:33N 59°20' E 018°05'0 0.0
2015-May-15 05:33N 59°20' E 018°05'0 0.0
2015-May-15 04:33N 59°20' E 018°05'0 0.0
2015-May-15 03:33N 59°20' E 018°05'0 0.0
2015-May-15 02:33N 59°20' E 018°04'0 0.0
2015-May-15 01:33N 59°20' E 018°05'0 0.0
2015-May-15 00:33N 59°20' E 018°05'0 0.0
2015-May-14 23:33N 59°20' E 018°05'0 0.0
2015-May-14 22:33N 59°20' E 018°05'0 0.0
2015-May-14 21:33N 59°20' E 018°05'0 0.0
2015-May-14 20:33N 59°20' E 018°05'0 0.0
2015-May-14 19:33N 59°20' E 018°05'0 0.2
2015-May-14 18:33N 59°20' E 018°05'  
Track history (hours):
 
Tides and Currents Weather Stations Pressure Air Temp Water Temp Dewpoint Dewpoint Depression Visibility Wind Speed Wind Dir Waves Ship Positions

Vano

Last reported at 2015-May-24 14:24 UTC. Time now 2015-May-24 15:24 UTC.
Position N 59°23' E 018°18'.

Length 38 m; draft 1.8 m.

Type: Passenger vessel. MMSI: 265520400.

Date/timePositionNaut miles runAvg speedWind from/ knotsBaromVisibWave heightAir tempDewpointWater temp
2015-May-24 14:24N 59°23' E 018°18'7 8.8
2015-May-24 13:33N 59°20' E 018°05'1 0.1
2015-May-23 14:11N 59°19' E 018°07'1 2.3
2015-May-23 13:33N 59°20' E 018°05'1 0.7
2015-May-23 12:33N 59°19' E 018°05'3 0.4
2015-May-23 06:21N 59°19' E 018°10'3 3.8
2015-May-23 05:34N 59°20' E 018°05'0 0.0
2015-May-23 04:33N 59°20' E 018°05'0 0.0
2015-May-23 03:33N 59°20' E 018°05'0 0.0
2015-May-23 02:33N 59°20' E 018°05'0 0.0
2015-May-23 01:33N 59°20' E 018°05'0 0.0
2015-May-23 00:33N 59°20' E 018°05'0 0.0
2015-May-22 23:33N 59°20' E 018°05'0 0.0
2015-May-22 22:33N 59°20' E 018°05'1 0.2
2015-May-22 16:26N 59°19' E 018°07'1 1.7
2015-May-22 15:33N 59°20' E 018°05'3 0.4
2015-May-22 07:09N 59°20' E 018°11'3 5.6
2015-May-22 06:33N 59°20' E 018°05'0 0.0
2015-May-22 05:33N 59°20' E 018°05'0 0.0
2015-May-22 04:33N 59°20' E 018°05'0 0.0
2015-May-22 03:33N 59°20' E 018°05'0 0.0
2015-May-22 02:33N 59°20' E 018°05'0 0.0
2015-May-22 01:33N 59°20' E 018°05'0 0.0
2015-May-22 00:33N 59°20' E 018°05'0 0.0
2015-May-21 23:33N 59°20' E 018°05'0 0.0
2015-May-21 21:33N 59°20' E 018°05'0 0.0
2015-May-21 20:33N 59°20' E 018°05'0 0.0
2015-May-21 19:33N 59°20' E 018°05'0 0.0
2015-May-21 18:33N 59°20' E 018°05'0 0.0
2015-May-21 17:33N 59°20' E 018°05'0 0.0
2015-May-21 16:33N 59°20' E 018°05'0 0.0
2015-May-21 15:33N 59°20' E 018°05'0 0.0
2015-May-21 14:33N 59°20' E 018°05'7 5.6
2015-May-21 13:13N 59°23' E 018°18'7 1.1
2015-May-21 07:09N 59°19' E 018°07'1 2.3
2015-May-21 06:33N 59°20' E 018°05'0 0.0
2015-May-20 15:32N 59°19' E 018°05'0 0.3
2015-May-20 14:31N 59°20' E 018°05'7 6.0
2015-May-20 13:18N 59°23' E 018°18'7 1.1
2015-May-20 07:11N 59°19' E 018°07'1 2.3
2015-May-20 06:33N 59°20' E 018°05'0 0.0
2015-May-19 15:32N 59°19' E 018°05'0 0.3
2015-May-19 14:33N 59°20' E 018°05'0 0.0
2015-May-19 13:33N 59°20' E 018°05'0 0.0
2015-May-19 12:33N 59°20' E 018°05'0 0.0
2015-May-19 11:33N 59°20' E 018°05'0 0.0
2015-May-19 10:33N 59°20' E 018°05'0 0.0
2015-May-19 09:32N 59°20' E 018°05'0 0.0
2015-May-19 08:33N 59°20' E 018°05'0 0.0
2015-May-19 07:33N 59°20' E 018°05'0 0.0
2015-May-19 06:33N 59°20' E 018°05'0 0.0
2015-May-19 05:34N 59°20' E 018°05'0 0.0
2015-May-19 04:33N 59°20' E 018°05'0 0.0
2015-May-19 03:33N 59°20' E 018°05'0 0.0
2015-May-19 02:33N 59°20' E 018°05'0 0.0
2015-May-19 01:33N 59°20' E 018°05'0 0.0
2015-May-19 00:33N 59°20' E 018°05'0 0.0
2015-May-18 23:33N 59°20' E 018°05'0 0.0
2015-May-18 22:33N 59°20' E 018°05'0 0.0
2015-May-18 21:33N 59°20' E 018°05'0 0.0
2015-May-18 20:33N 59°20' E 018°05'0 0.0
2015-May-18 19:33N 59°20' E 018°05'0 0.0
2015-May-18 18:33N 59°20' E 018°05'0 0.0
2015-May-18 17:33N 59°20' E 018°05'0 0.0
2015-May-18 16:33N 59°20' E 018°05'0 0.0
2015-May-18 15:33N 59°20' E 018°05'0 0.0
2015-May-18 14:33N 59°20' E 018°05'0 0.0
2015-May-18 13:33N 59°20' E 018°05'0 0.0
2015-May-18 12:33N 59°20' E 018°05'0 0.0
2015-May-18 11:33N 59°20' E 018°05'0 0.0
2015-May-18 10:33N 59°20' E 018°05'0 0.0
2015-May-18 09:33N 59°20' E 018°05'0 0.0
2015-May-18 08:33N 59°20' E 018°05'0 0.0
2015-May-18 07:33N 59°20' E 018°05'0 0.0
2015-May-18 06:33N 59°20' E 018°05'0 0.0
2015-May-18 05:33N 59°20' E 018°05'0 0.0
2015-May-18 04:33N 59°20' E 018°05'0 0.0
2015-May-18 03:32N 59°20' E 018°05'0 0.0
2015-May-18 02:32N 59°20' E 018°05'0 0.0
2015-May-18 01:33N 59°20' E 018°05'0 0.0
2015-May-18 00:33N 59°20' E 018°05'0 0.0
2015-May-17 23:33N 59°20' E 018°05'0 0.0
2015-May-17 22:33N 59°20' E 018°05'0 0.0
2015-May-17 21:33N 59°20' E 018°05'0 0.0
2015-May-17 20:33N 59°20' E 018°05'0 0.0
2015-May-17 19:33N 59°20' E 018°05'1 1.2
2015-May-17 18:33N 59°19' E 018°06'7 1.6
2015-May-17 14:21N 59°23' E 018°18'7 8.7
2015-May-17 13:31N 59°20' E 018°05'8 7.8
2015-May-17 12:33N 59°23' E 018°18'7 0.3
2015-May-16 14:11N 59°19' E 018°07'1 2.2
2015-May-16 13:33N 59°20' E 018°04'0 0.4
2015-May-16 12:31N 59°19' E 018°05'1 0.2
2015-May-16 06:10N 59°19' E 018°07'1 2.3
2015-May-16 05:33N 59°20' E 018°04'0 0.0
2015-May-16 04:33N 59°20' E 018°04'0 0.0
2015-May-16 03:33N 59°20' E 018°04'0 0.0
2015-May-16 02:33N 59°20' E 018°04'0 0.0
2015-May-16 01:33N 59°20' E 018°04'0 0.0
2015-May-16 00:33N 59°20' E 018°04'0 0.0
2015-May-15 23:33N 59°20' E 018°04'0 0.0
2015-May-15 22:33N 59°20' E 018°04'7 5.6
2015-May-15 21:15N 59°23' E 018°18'7 1.4
2015-May-15 16:25N 59°19' E 018°07'1 1.4
2015-May-15 15:33N 59°20' E 018°05'3 0.4
2015-May-15 07:04N 59°20' E 018°11'3 5.9
2015-May-15 06:33N 59°20' E 018°05'0 0.0
2015-May-15 05:33N 59°20' E 018°05'0 0.0
2015-May-15 04:33N 59°20' E 018°05'0 0.0
2015-May-15 03:33N 59°20' E 018°05'0 0.0
2015-May-15 02:33N 59°20' E 018°04'0 0.0
2015-May-15 01:33N 59°20' E 018°05'0 0.0
2015-May-15 00:33N 59°20' E 018°05'0 0.0
2015-May-14 23:33N 59°20' E 018°05'0 0.0
2015-May-14 22:33N 59°20' E 018°05'0 0.0
2015-May-14 21:33N 59°20' E 018°05'0 0.0
2015-May-14 20:33N 59°20' E 018°05'0 0.0
2015-May-14 19:33N 59°20' E 018°05'0 0.2
2015-May-14 18:33N 59°20' E 018°05'  

Dump ship's entire track history